Time;durP1;ratioP1;P1;durP2;ratioP2;P2;SDS_P1;SDS_P2;PMS_P1;PMS_P2;Temp;Humidity;BMP_temperature;BMP_pressure;BME280_temperature;BME280_humidity;BME280_pressure;Samples;Min_cycle;Max_cycle;Signal;HPM_P1;HPM_P2
2023/09/19 00:01:33;;;;;;;7.68;2.08;;;;;;;-144.73;100.00;54489.81;5032389;28;20033;-76
2023/09/19 00:03:59;;;;;;;4.55;2.67;;;;;;;-144.73;100.00;54489.81;5032946;28;20041;-76
2023/09/19 00:06:26;;;;;;;9.85;2.30;;;;;;;-144.73;100.00;54514.44;5031240;28;20057;-76
2023/09/19 00:08:51;;;;;;;13.38;1.70;;;;;;;-144.73;100.00;54510.31;5040907;28;20079;-76
2023/09/19 00:11:17;;;;;;;7.32;2.28;;;;;;;-144.73;100.00;54469.28;5025876;28;20038;-75
2023/09/19 00:13:43;;;;;;;7.20;2.63;;;;;;;-144.73;100.00;54489.81;5027979;28;20018;-77
2023/09/19 00:16:11;;;;;;;5.90;2.58;;;;;;;-144.73;100.00;54489.81;5033588;28;20059;-77
2023/09/19 00:18:38;;;;;;;7.97;2.75;;;;;;;-144.73;100.00;54452.84;5034929;28;20384;-76
2023/09/19 00:21:07;;;;;;;7.70;2.40;;;;;;;-144.73;100.00;54465.16;5035858;28;20123;-78
2023/09/19 00:23:33;;;;;;;12.80;2.60;;;;;;;-144.73;100.00;54469.28;5030919;28;20018;-76
2023/09/19 00:25:59;;;;;;;7.80;2.60;;;;;;;-144.73;100.00;54477.47;5031749;28;20022;-77
2023/09/19 00:28:24;;;;;;;9.93;2.97;;;;;;;-144.73;100.00;54522.63;5037735;28;20445;-76
2023/09/19 00:30:49;;;;;;;9.77;2.45;;;;;;;-144.73;100.00;54489.81;5026129;28;20517;-77
2023/09/19 00:33:16;;;;;;;8.30;2.60;;;;;;;-144.73;100.00;54444.66;5029361;28;20077;-75
2023/09/19 00:35:49;;;;;;;8.23;2.75;;;;;;;-144.73;100.00;54510.31;5039757;28;20167;-75
2023/09/19 00:38:19;;;;;;;10.27;2.28;;;;;;;-144.73;100.00;54514.44;5035175;28;20130;-74
2023/09/19 00:40:45;;;;;;;10.10;2.65;;;;;;;-144.73;100.00;54465.16;5032306;28;20036;-75
2023/09/19 00:43:11;;;;;;;4.95;2.35;;;;;;;-144.73;100.00;54491.84;5042406;28;20021;-75
2023/09/19 00:45:38;;;;;;;7.55;2.42;;;;;;;-144.73;100.00;54481.59;5036818;28;20041;-74
2023/09/19 00:48:06;;;;;;;8.63;2.90;;;;;;;-144.73;100.00;54487.75;5034985;28;20098;-75
2023/09/19 00:50:32;;;;;;;11.07;3.00;;;;;;;-144.73;100.00;54481.59;5034057;28;20033;-74
2023/09/19 00:52:58;;;;;;;6.53;3.08;;;;;;;-144.73;100.00;54473.38;5038156;28;20026;-75
2023/09/19 00:55:25;;;;;;;7.78;3.42;;;;;;;-144.73;100.00;54461.06;5034497;28;20029;-75
2023/09/19 00:57:51;;;;;;;11.55;3.10;;;;;;;-144.73;100.00;54473.38;5033652;28;20156;-74
2023/09/19 01:00:20;;;;;;;13.25;3.25;;;;;;;-144.73;100.00;54487.75;5033530;28;20484;-75
2023/09/19 01:02:46;;;;;;;14.13;2.78;;;;;;;-144.73;100.00;54481.59;5035559;28;20083;-76
2023/09/19 01:05:12;;;;;;;11.55;3.42;;;;;;;-144.73;100.00;54502.13;5038048;28;20068;-76
2023/09/19 01:07:41;;;;;;;10.98;3.47;;;;;;;-144.73;100.00;54465.16;5035985;28;20024;-75
2023/09/19 01:10:09;;;;;;;12.65;3.45;;;;;;;-144.73;100.00;54456.97;5036214;28;20817;-76
2023/09/19 01:12:41;;;;;;;8.10;3.00;;;;;;;-144.73;100.00;54518.53;5043535;28;20029;-76
2023/09/19 01:15:17;;;;;;;8.88;3.22;;;;;;;-144.73;100.00;54491.84;5037168;28;20045;-75
2023/09/19 01:17:52;;;;;;;6.22;2.97;;;;;;;-144.73;100.00;54500.06;5035133;28;20056;-76
2023/09/19 01:20:39;;;;;;;19.38;3.38;;;;;;;-144.73;100.00;54469.28;5034185;28;20033;-75
2023/09/19 01:23:14;;;;;;;12.45;3.28;;;;;;;-144.73;100.00;54473.38;5039672;28;20083;-76
2023/09/19 01:26:14;;;;;;;10.43;3.10;;;;;;;-144.73;100.00;54502.13;5038818;28;20033;-75
2023/09/19 01:28:54;;;;;;;13.07;3.67;;;;;;;-144.73;100.00;54463.13;5041611;28;20033;-76
2023/09/19 01:31:23;;;;;;;10.68;3.72;;;;;;;-144.73;100.00;54489.81;5033231;28;20040;-76
2023/09/19 01:34:03;;;;;;;9.93;3.47;;;;;;;-144.73;100.00;54493.91;5035235;28;20036;-75
2023/09/19 01:36:36;;;;;;;14.13;3.60;;;;;;;-144.73;100.00;54465.16;5030448;28;20627;-76
2023/09/19 01:39:05;;;;;;;4.75;2.80;;;;;;;-144.73;100.00;54485.69;5031265;28;20025;-76
2023/09/19 01:41:56;;;;;;;13.35;3.55;;;;;;;-144.73;100.00;54506.22;5041051;28;20037;-76
2023/09/19 01:44:34;;;;;;;8.77;3.40;;;;;;;-144.73;100.00;54475.44;5034549;28;20029;-76
2023/09/19 01:47:10;;;;;;;10.43;3.85;;;;;;;-144.73;100.00;54504.16;5029865;28;20049;-76
2023/09/19 01:49:55;;;;;;;7.85;2.92;;;;;;;-144.73;100.00;54516.47;5035063;28;20025;-76
2023/09/19 01:52:26;;;;;;;8.95;3.38;;;;;;;-144.73;100.00;54485.69;5035738;28;20046;-76
2023/09/19 01:54:56;;;;;;;7.78;3.08;;;;;;;-144.73;100.00;54506.22;5033123;28;20480;-76
2023/09/19 01:57:46;;;;;;;9.73;2.92;;;;;;;-144.73;100.00;54506.22;5033538;28;20075;-76
2023/09/19 02:00:14;;;;;;;9.52;3.28;;;;;;;-144.73;100.00;54481.59;5032237;28;20037;-76
2023/09/19 02:02:44;;;;;;;10.50;2.88;;;;;;;-144.73;100.00;54498.00;5038865;28;20029;-76
2023/09/19 02:05:10;;;;;;;9.18;2.80;;;;;;;-144.73;100.00;54469.28;5034399;28;20033;-76
2023/09/19 02:07:37;;;;;;;8.05;2.42;;;;;;;-144.73;100.00;54506.22;5036191;28;20057;-76
2023/09/19 02:10:07;;;;;;;13.88;2.67;;;;;;;-144.73;100.00;54506.22;5039588;28;20033;-75
2023/09/19 02:12:33;;;;;;;10.75;2.60;;;;;;;-144.73;100.00;54514.44;5037089;28;20017;-76
2023/09/19 02:14:59;;;;;;;13.07;2.80;;;;;;;-144.73;100.00;54465.16;5034787;28;20480;-76
2023/09/19 02:17:26;;;;;;;13.55;3.47;;;;;;;-144.73;100.00;54493.91;5041914;28;20056;-75
2023/09/19 02:19:54;;;;;;;7.55;3.30;;;;;;;-144.73;100.00;54500.06;5040156;28;20020;-76
2023/09/19 02:22:21;;;;;;;10.68;3.47;;;;;;;-144.73;100.00;54481.59;5032053;28;20021;-76
2023/09/19 02:24:47;;;;;;;11.60;3.13;;;;;;;-144.73;100.00;54481.59;5032694;28;20026;-76
2023/09/19 02:27:15;;;;;;;9.13;3.05;;;;;;;-144.73;100.00;54526.75;5037173;28;20352;-76
2023/09/19 02:29:44;;;;;;;14.82;4.43;;;;;;;-144.73;100.00;54465.16;5037390;28;20031;-76
2023/09/19 02:32:10;;;;;;;8.48;3.78;;;;;;;-144.73;100.00;54487.75;5036798;28;20129;-76
2023/09/19 02:34:36;;;;;;;20.20;4.15;;;;;;;-144.73;100.00;54491.84;5036755;28;20496;-76
2023/09/19 02:37:04;;;;;;;7.65;3.78;;;;;;;-144.73;100.00;54454.91;5035002;28;20036;-76
2023/09/19 02:39:30;;;;;;;13.43;4.47;;;;;;;-144.73;100.00;54477.47;5038276;28;20112;-76
2023/09/19 02:41:56;;;;;;;9.05;4.57;;;;;;;-144.73;100.00;54461.06;5031068;28;20067;-75
2023/09/19 02:44:23;;;;;;;12.23;4.07;;;;;;;-144.73;100.00;54506.22;5028582;28;20045;-76
2023/09/19 02:46:48;;;;;;;13.48;5.55;;;;;;;-144.73;100.00;54461.06;5037931;28;20094;-76
2023/09/19 02:49:14;;;;;;;13.75;3.70;;;;;;;-144.73;100.00;54489.81;5039319;28;20052;-76
2023/09/19 02:51:39;;;;;;;11.40;4.18;;;;;;;-144.73;100.00;54508.28;5034198;28;20503;-76
2023/09/19 02:54:04;;;;;;;17.52;4.32;;;;;;;-144.73;100.00;54530.84;5035960;28;20021;-76
2023/09/19 02:56:32;;;;;;;10.07;3.83;;;;;;;-144.73;100.00;54489.81;5034949;28;20262;-76
2023/09/19 02:58:57;;;;;;;17.52;5.07;;;;;;;-144.73;100.00;54489.81;5037082;28;20021;-76
2023/09/19 03:01:23;;;;;;;10.55;4.22;;;;;;;-144.73;100.00;54514.44;5037766;28;20103;-76
2023/09/19 03:03:49;;;;;;;11.88;3.67;;;;;;;-144.73;100.00;54510.31;5038519;28;20036;-76
2023/09/19 03:06:14;;;;;;;9.02;3.60;;;;;;;-144.73;100.00;54506.22;5036103;28;20072;-76
2023/09/19 03:08:42;;;;;;;12.57;4.82;;;;;;;-144.73;100.00;54489.81;5039458;28;20048;-76
2023/09/19 03:11:09;;;;;;;9.82;2.95;;;;;;;-144.73;100.00;54469.28;5039908;28;20041;-76
2023/09/19 03:13:36;;;;;;;9.88;3.53;;;;;;;-144.73;100.00;54512.38;5038296;28;20122;-76
2023/09/19 03:16:05;;;;;;;19.45;3.90;;;;;;;-144.73;100.00;54510.31;5041497;28;20036;-75
2023/09/19 03:18:31;;;;;;;12.05;3.03;;;;;;;-144.73;100.00;54504.16;5036909;28;20029;-76
2023/09/19 03:20:59;;;;;;;14.10;4.30;;;;;;;-144.73;100.00;54485.69;5037132;28;20172;-76
2023/09/19 03:23:26;;;;;;;18.15;4.07;;;;;;;-144.73;100.00;54452.84;5037822;28;20024;-76
2023/09/19 03:25:52;;;;;;;18.60;3.80;;;;;;;-144.73;100.00;54489.81;5031685;28;20037;-76
2023/09/19 03:28:18;;;;;;;9.63;3.10;;;;;;;-144.73;100.00;54498.00;5032343;28;20032;-76
2023/09/19 03:30:44;;;;;;;10.55;3.22;;;;;;;-144.73;100.00;54502.13;5033233;28;20044;-75
2023/09/19 03:33:11;;;;;;;14.20;3.65;;;;;;;-144.73;100.00;54510.31;5037158;28;20041;-76
2023/09/19 03:35:38;;;;;;;10.98;3.10;;;;;;;-144.73;100.00;54522.63;5031942;28;20033;-76
2023/09/19 03:38:04;;;;;;;12.10;3.15;;;;;;;-144.73;100.00;54477.47;5034227;28;20017;-76
2023/09/19 03:40:30;;;;;;;13.60;3.28;;;;;;;-144.73;100.00;54510.31;5031907;28;20039;-76
2023/09/19 03:42:55;;;;;;;7.70;2.90;;;;;;;-144.73;100.00;54452.84;5039700;28;20104;-76
2023/09/19 03:45:20;;;;;;;10.07;2.92;;;;;;;-144.73;100.00;54502.13;5024888;28;20049;-76
2023/09/19 03:47:47;;;;;;;17.85;3.22;;;;;;;-144.73;100.00;54508.28;5041394;28;20025;-76
2023/09/19 03:50:17;;;;;;;17.20;3.05;;;;;;;-144.73;100.00;54465.16;5035529;28;20049;-76
2023/09/19 03:52:44;;;;;;;11.88;3.25;;;;;;;-144.73;100.00;54510.31;5037256;28;20033;-75
2023/09/19 03:55:09;;;;;;;16.05;3.53;;;;;;;-144.73;100.00;54502.13;5028250;28;20025;-76
2023/09/19 03:57:36;;;;;;;13.70;2.70;;;;;;;-144.73;100.00;54508.28;5030970;28;20120;-76
2023/09/19 04:00:02;;;;;;;7.47;2.70;;;;;;;-144.73;100.00;54481.59;5034699;28;20024;-75
2023/09/19 04:02:32;;;;;;;16.58;3.50;;;;;;;-144.73;100.00;54502.13;5032545;28;20029;-76
2023/09/19 04:04:58;;;;;;;18.00;3.30;;;;;;;-144.73;100.00;54485.69;5040926;28;20079;-75
2023/09/19 04:07:25;;;;;;;16.00;2.80;;;;;;;-144.73;100.00;54510.31;5031827;28;20025;-76
2023/09/19 04:09:53;;;;;;;14.98;2.75;;;;;;;-144.73;100.00;54498.00;5033742;28;20029;-76
2023/09/19 04:12:19;;;;;;;15.18;3.35;;;;;;;-144.73;100.00;54502.13;5038450;28;20108;-75
2023/09/19 04:14:44;;;;;;;8.73;2.38;;;;;;;-144.73;100.00;54481.59;5045394;28;20098;-76
2023/09/19 04:17:10;;;;;;;10.05;2.53;;;;;;;-144.73;100.00;54498.00;5041958;28;20017;-76
2023/09/19 04:19:36;;;;;;;10.32;2.90;;;;;;;-144.73;100.00;54502.13;5043921;28;20025;-76
2023/09/19 04:22:01;;;;;;;10.98;2.33;;;;;;;-144.73;100.00;54469.28;5038567;28;20163;-76
2023/09/19 04:24:27;;;;;;;15.02;4.30;;;;;;;-144.73;100.00;54493.91;5040019;28;20024;-75
2023/09/19 04:26:52;;;;;;;17.08;3.85;;;;;;;-144.73;100.00;54477.47;5044198;28;20040;-76
2023/09/19 04:29:19;;;;;;;10.43;2.95;;;;;;;-144.73;100.00;54510.31;5041732;28;20104;-76
2023/09/19 04:31:45;;;;;;;14.30;2.55;;;;;;;-144.73;100.00;54502.13;5038739;28;20041;-76
2023/09/19 04:34:17;;;;;;;10.73;2.42;;;;;;;-144.73;100.00;54459.00;5040769;28;20017;-76
2023/09/19 04:36:43;;;;;;;15.52;2.58;;;;;;;-144.73;100.00;54485.69;5040610;28;20053;-76
2023/09/19 04:39:10;;;;;;;17.42;2.80;;;;;;;-144.73;100.00;54498.00;5041630;28;20025;-76
2023/09/19 04:41:38;;;;;;;20.00;4.30;;;;;;;-144.73;100.00;54514.44;5037416;28;20041;-76
2023/09/19 04:44:05;;;;;;;17.20;2.63;;;;;;;-144.73;100.00;54493.91;5037937;28;20029;-76
2023/09/19 04:46:30;;;;;;;23.08;3.45;;;;;;;-144.73;100.00;54477.47;5046672;28;20033;-76
2023/09/19 04:48:56;;;;;;;15.25;2.60;;;;;;;-144.73;100.00;54502.13;5046579;28;20036;-76
2023/09/19 04:51:21;;;;;;;16.95;2.92;;;;;;;-144.73;100.00;54479.53;5037468;28;20037;-76
2023/09/19 04:53:47;;;;;;;22.15;2.90;;;;;;;-144.73;100.00;54487.75;5050471;28;20475;-76
2023/09/19 04:56:13;;;;;;;15.50;3.28;;;;;;;-144.73;100.00;54461.06;5037686;28;20025;-76
2023/09/19 04:58:38;;;;;;;17.25;2.55;;;;;;;-144.73;100.00;54530.84;5035546;28;20028;-76
2023/09/19 05:01:04;;;;;;;12.13;3.30;;;;;;;-144.73;100.00;54514.44;5039079;28;20044;-76
2023/09/19 05:03:30;;;;;;;15.90;3.00;;;;;;;-144.73;100.00;54522.63;5033530;28;20025;-76
2023/09/19 05:05:55;;;;;;;14.93;3.03;;;;;;;-144.73;100.00;54498.00;5039430;28;20033;-76
2023/09/19 05:08:22;;;;;;;20.58;3.10;;;;;;;-144.73;100.00;54473.38;5034691;28;20064;-75
2023/09/19 05:10:48;;;;;;;13.55;3.20;;;;;;;-144.73;100.00;54522.63;5033475;28;20038;-76
2023/09/19 05:13:14;;;;;;;15.40;3.08;;;;;;;-144.73;100.00;54514.44;5040396;28;20134;-76
2023/09/19 05:15:40;;;;;;;14.65;2.75;;;;;;;-144.73;100.00;54477.47;5039232;28;20064;-76
2023/09/19 05:18:06;;;;;;;20.63;3.78;;;;;;;-144.73;100.00;54522.63;5037296;28;20044;-76
2023/09/19 05:20:33;;;;;;;17.77;3.67;;;;;;;-144.73;100.00;54522.63;5039592;28;20045;-76
2023/09/19 05:23:12;;;;;;;15.52;2.78;;;;;;;-144.73;100.00;54514.44;5038076;28;20037;-75
2023/09/19 05:25:38;;;;;;;19.13;3.03;;;;;;;-144.73;100.00;54479.53;5037702;28;20041;-75
2023/09/19 05:28:08;;;;;;;11.27;2.60;;;;;;;-144.73;100.00;54489.81;5038325;28;20060;-76
2023/09/19 05:30:35;;;;;;;11.05;2.55;;;;;;;-144.73;100.00;54461.06;5029953;28;20053;-76
2023/09/19 05:33:02;;;;;;;15.13;3.08;;;;;;;-144.73;100.00;54493.91;5033417;28;20063;-76
2023/09/19 05:35:27;;;;;;;13.13;3.20;;;;;;;-144.73;100.00;54498.00;5036195;28;20052;-76
2023/09/19 05:37:55;;;;;;;9.75;2.78;;;;;;;-144.73;100.00;54485.69;5039232;28;20025;-76
2023/09/19 05:40:20;;;;;;;19.33;2.83;;;;;;;-144.73;100.00;54485.69;5041731;28;20072;-75
2023/09/19 05:42:46;;;;;;;17.17;3.63;;;;;;;-144.73;100.00;54547.28;5034041;28;20172;-76
2023/09/19 05:45:13;;;;;;;12.45;3.08;;;;;;;-144.73;100.00;54502.13;5046815;28;20041;-76
2023/09/19 05:47:42;;;;;;;16.75;3.08;;;;;;;-144.73;100.00;54506.22;5036565;28;20079;-75
2023/09/19 05:50:09;;;;;;;10.38;3.17;;;;;;;-144.73;100.00;54493.91;5046371;28;20094;-76
2023/09/19 05:52:36;;;;;;;18.38;3.78;;;;;;;-144.73;100.00;54473.38;5044505;28;20052;-75
2023/09/19 05:55:01;;;;;;;20.38;3.20;;;;;;;-144.73;100.00;54469.28;5036522;28;20392;-75
2023/09/19 05:57:27;;;;;;;11.35;3.42;;;;;;;-144.73;100.00;54436.44;5042673;28;20029;-75
2023/09/19 05:59:53;;;;;;;16.77;2.95;;;;;;;-144.73;100.00;54479.53;5039532;28;20028;-75
2023/09/19 06:02:19;;;;;;;15.75;3.22;;;;;;;-144.73;100.00;54498.00;5028781;28;20029;-75
2023/09/19 06:04:45;;;;;;;19.63;3.15;;;;;;;-144.73;100.00;54475.44;5043219;28;20060;-75
2023/09/19 06:07:11;;;;;;;14.73;3.25;;;;;;;-144.73;100.00;54539.06;5041682;28;20017;-76
2023/09/19 06:09:37;;;;;;;20.38;3.80;;;;;;;-144.73;100.00;54477.47;5040941;28;20021;-75
2023/09/19 06:12:03;;;;;;;14.70;3.90;;;;;;;-144.73;100.00;54522.63;5034698;28;20519;-75
2023/09/19 06:14:29;;;;;;;22.00;3.20;;;;;;;-144.73;100.00;54539.06;5039889;28;20021;-75
2023/09/19 06:16:54;;;;;;;19.02;2.92;;;;;;;-144.73;100.00;54516.47;5040672;28;20428;-75
2023/09/19 06:19:22;;;;;;;14.32;3.20;;;;;;;-144.73;100.00;54485.69;5043098;28;20032;-76
2023/09/19 06:21:49;;;;;;;20.13;3.72;;;;;;;-144.73;100.00;54498.00;5045159;28;20040;-75
2023/09/19 06:24:14;;;;;;;31.73;3.22;;;;;;;-144.73;100.00;54473.38;5034272;28;20083;-75
2023/09/19 06:26:40;;;;;;;17.27;4.45;;;;;;;-144.73;100.00;54481.59;5043308;28;20037;-76
2023/09/19 06:29:07;;;;;;;18.13;2.90;;;;;;;-144.73;100.00;54456.97;5037354;28;20021;-76
2023/09/19 06:31:33;;;;;;;17.20;3.50;;;;;;;-144.73;100.00;54444.66;5037172;28;20487;-76
2023/09/19 06:33:58;;;;;;;16.10;3.85;;;;;;;-144.73;100.00;54467.22;5039104;28;20052;-76
2023/09/19 06:36:24;;;;;;;19.98;2.88;;;;;;;-144.73;100.00;54518.53;5041489;28;20069;-76
2023/09/19 06:38:51;;;;;;;12.25;3.30;;;;;;;-144.73;100.00;54498.00;5035374;28;20104;-76
2023/09/19 06:41:17;;;;;;;19.38;3.13;;;;;;;-144.73;100.00;54461.06;5041384;28;20069;-76
2023/09/19 06:43:42;;;;;;;15.85;3.42;;;;;;;-144.73;100.00;54510.31;5039730;28;20079;-76
2023/09/19 06:46:09;;;;;;;16.73;3.42;;;;;;;-144.73;100.00;54493.91;5034180;28;20030;-76
2023/09/19 06:48:36;;;;;;;19.20;3.45;;;;;;;-144.73;100.00;54489.81;5047913;28;20052;-76
2023/09/19 06:51:04;;;;;;;16.25;3.30;;;;;;;-144.73;100.00;54502.13;5043787;28;20041;-76
2023/09/19 06:53:32;;;;;;;16.42;3.38;;;;;;;-144.73;100.00;54498.00;5040737;28;20025;-76
2023/09/19 06:55:58;;;;;;;14.20;3.88;;;;;;;-144.73;100.00;54481.59;5038557;28;20026;-76
2023/09/19 06:58:23;;;;;;;20.38;3.83;;;;;;;-144.73;100.00;54502.13;5043393;28;20020;-76
2023/09/19 07:00:50;;;;;;;19.45;4.18;;;;;;;-144.73;100.00;54493.91;5042200;28;20025;-76
2023/09/19 07:03:18;;;;;;;17.83;4.32;;;;;;;-144.73;100.00;54491.84;5038684;28;20033;-76
2023/09/19 07:05:44;;;;;;;22.33;3.78;;;;;;;-144.73;100.00;54514.44;5034947;28;20021;-76
2023/09/19 07:08:12;;;;;;;18.80;3.70;;;;;;;-144.73;100.00;54493.91;5042109;28;20028;-76
2023/09/19 07:10:40;;;;;;;13.75;3.78;;;;;;;-144.73;100.00;54469.28;5039897;28;20111;-75
2023/09/19 07:13:10;;;;;;;20.58;4.25;;;;;;;-144.73;100.00;54477.47;5040917;28;20025;-76
2023/09/19 07:15:39;;;;;;;30.92;4.15;;;;;;;-144.73;100.00;54473.38;5037591;28;20366;-76
2023/09/19 07:18:06;;;;;;;14.05;4.15;;;;;;;-144.73;100.00;54436.44;5037535;28;20076;-76
2023/09/19 07:20:32;;;;;;;14.52;3.33;;;;;;;-144.73;100.00;54461.06;5031946;28;20026;-76
2023/09/19 07:23:01;;;;;;;17.38;3.60;;;;;;;-144.73;100.00;54481.59;5038524;28;20104;-76
2023/09/19 07:25:30;;;;;;;20.48;3.45;;;;;;;-144.73;100.00;54500.06;5033023;28;20029;-75
2023/09/19 07:27:59;;;;;;;16.83;3.10;;;;;;;-144.73;100.00;54481.59;5030121;28;20021;-76
2023/09/19 07:30:26;;;;;;;14.85;3.53;;;;;;;-144.73;100.00;54485.69;5027331;28;20033;-76
2023/09/19 07:32:52;;;;;;;15.75;4.13;;;;;;;-144.73;100.00;54518.53;5042731;28;20475;-76
2023/09/19 07:35:19;;;;;;;19.13;3.90;;;;;;;-144.73;100.00;54506.22;5030891;28;20029;-76
2023/09/19 07:37:49;;;;;;;18.13;3.38;;;;;;;-144.73;100.00;54551.38;5041425;28;20024;-76
2023/09/19 07:40:19;;;;;;;19.90;4.80;;;;;;;-144.73;100.00;54456.97;5029406;28;20702;-76
2023/09/19 07:42:46;;;;;;;22.63;3.50;;;;;;;-144.73;100.00;54539.06;5030940;28;20020;-76
2023/09/19 07:45:16;;;;;;;22.45;3.75;;;;;;;-144.73;100.00;54510.31;5042412;28;20043;-76
2023/09/19 07:47:46;;;;;;;21.63;3.85;;;;;;;-144.73;100.00;54481.59;5036526;28;20017;-75
2023/09/19 07:50:16;;;;;;;19.77;3.90;;;;;;;-144.73;100.00;54506.22;5039771;28;20412;-76
2023/09/19 07:52:42;;;;;;;21.65;4.20;;;;;;;-144.73;100.00;54498.00;5033621;28;20020;-76
2023/09/19 07:55:15;;;;;;;23.08;4.25;;;;;;;-144.73;100.00;54481.59;5038195;28;20052;-76
2023/09/19 07:57:42;;;;;;;24.55;4.57;;;;;;;-144.73;100.00;54502.13;5034538;28;20020;-76
2023/09/19 08:00:09;;;;;;;26.38;4.60;;;;;;;-144.73;100.00;54485.69;5037833;28;20030;-76
2023/09/19 08:02:38;;;;;;;25.15;4.45;;;;;;;-144.73;100.00;54508.28;5044755;28;20033;-75
2023/09/19 08:05:06;;;;;;;33.53;4.80;;;;;;;-144.73;100.00;54485.69;5038439;28;20041;-78
2023/09/19 08:07:32;;;;;;;27.15;4.57;;;;;;;-144.73;100.00;54493.91;5033723;28;20018;-79
2023/09/19 08:09:58;;;;;;;25.00;4.50;;;;;;;-144.73;100.00;54518.53;5045905;28;20024;-79
2023/09/19 08:12:24;;;;;;;20.42;4.15;;;;;;;-144.73;100.00;54510.31;5031442;28;20021;-78
2023/09/19 08:14:50;;;;;;;15.55;3.75;;;;;;;-144.73;100.00;54604.75;5027332;28;20021;-77
2023/09/19 08:17:16;;;;;;;24.25;4.72;;;;;;;-144.73;100.00;54522.63;5037523;28;20022;-78
2023/09/19 08:19:42;;;;;;;36.95;4.95;;;;;;;-144.73;100.00;54485.69;5033333;28;20027;-77
2023/09/19 08:22:10;;;;;;;17.73;4.15;;;;;;;-144.73;100.00;54502.13;5033634;28;20034;-78
2023/09/19 08:24:36;;;;;;;17.85;3.80;;;;;;;-144.73;100.00;54539.06;5038046;28;20021;-77
2023/09/19 08:27:04;;;;;;;17.35;4.22;;;;;;;-144.73;100.00;54473.38;5033262;28;20030;-76
2023/09/19 08:29:29;;;;;;;14.68;3.65;;;;;;;-144.73;100.00;54539.06;5041956;28;20369;-77
2023/09/19 08:31:56;;;;;;;31.80;4.60;;;;;;;-144.73;100.00;54500.06;5028429;28;20029;-77
2023/09/19 08:34:23;;;;;;;20.02;3.60;;;;;;;-144.73;100.00;54477.47;5036669;28;20050;-76
2023/09/19 08:36:50;;;;;;;21.50;3.88;;;;;;;-144.73;100.00;54563.69;5038429;28;20108;-76
2023/09/19 08:39:16;;;;;;;29.52;4.03;;;;;;;-144.73;100.00;54506.22;5031984;28;20014;-76
2023/09/19 08:41:42;;;;;;;18.30;3.58;;;;;;;-144.73;100.00;54539.06;5030050;28;20381;-76
2023/09/19 08:44:08;;;;;;;17.98;4.38;;;;;;;-144.73;100.00;54469.28;5033399;28;20044;-76
2023/09/19 08:46:35;;;;;;;23.63;4.40;;;;;;;-144.73;100.00;54512.38;5035187;28;20116;-76
2023/09/19 08:49:07;;;;;;;30.67;3.88;;;;;;;-144.73;100.00;54493.91;5028291;28;20017;-76
2023/09/19 08:51:44;;;;;;;18.80;4.78;;;;;;;-144.73;100.00;54522.63;5035245;28;20044;-76
2023/09/19 08:54:19;;;;;;;25.75;3.67;;;;;;;-144.73;100.00;54502.13;5038225;28;20033;-76
2023/09/19 08:56:47;;;;;;;20.25;4.18;;;;;;;-144.73;100.00;54506.22;5034715;28;20029;-76
2023/09/19 08:59:14;;;;;;;21.92;3.60;;;;;;;-144.73;100.00;54456.97;5044462;28;20021;-76
2023/09/19 09:01:41;;;;;;;24.38;3.90;;;;;;;-144.73;100.00;54477.47;5032702;28;20021;-77
2023/09/19 09:04:09;;;;;;;21.80;4.80;;;;;;;-144.73;100.00;54506.22;5040833;28;20032;-77
2023/09/19 09:06:35;;;;;;;22.80;4.13;;;;;;;-144.73;100.00;54489.81;5033750;28;20127;-77
2023/09/19 09:09:03;;;;;;;20.45;4.55;;;;;;;-144.73;100.00;54469.28;5042236;28;20029;-75
2023/09/19 09:11:29;;;;;;;15.93;3.78;;;;;;;-144.73;100.00;54493.91;5037717;28;20029;-75
2023/09/19 09:13:54;;;;;;;14.98;4.68;;;;;;;-144.73;100.00;54475.44;5045111;28;20024;-75
2023/09/19 09:16:19;;;;;;;28.55;4.20;;;;;;;-144.73;100.00;54469.28;5044364;28;20087;-75
2023/09/19 09:18:46;;;;;;;19.23;3.97;;;;;;;-144.73;100.00;54477.47;5039342;28;20037;-75
2023/09/19 09:21:13;;;;;;;24.13;5.18;;;;;;;-144.73;100.00;54502.13;5032363;28;20022;-76
2023/09/19 09:23:38;;;;;;;18.73;4.28;;;;;;;-144.73;100.00;54481.59;5032930;28;20025;-76
2023/09/19 09:26:05;;;;;;;22.65;3.83;;;;;;;-144.73;100.00;54502.13;5034318;28;20029;-76
2023/09/19 09:28:33;;;;;;;19.85;4.28;;;;;;;-144.73;100.00;54498.00;5037368;28;20121;-75
2023/09/19 09:31:02;;;;;;;24.90;4.20;;;;;;;-144.73;100.00;54473.38;5038190;28;20029;-76
2023/09/19 09:33:28;;;;;;;19.38;4.28;;;;;;;-144.73;100.00;54450.81;5041369;28;20025;-76
2023/09/19 09:36:02;;;;;;;18.83;4.35;;;;;;;-144.73;100.00;54510.31;5044200;28;20032;-76
2023/09/19 09:38:32;;;;;;;21.33;4.53;;;;;;;-144.73;100.00;54491.84;5036937;28;20089;-76
2023/09/19 09:43:38;;;;;;;19.70;3.88;;;;;;;-144.73;100.00;54477.47;5034270;28;20108;-77
2023/09/19 09:51:39;;;;;;;24.88;5.40;;;;;;;-144.73;100.00;54465.16;5044930;28;20032;-76
2023/09/19 09:54:12;;;;;;;23.42;4.32;;;;;;;-144.73;100.00;54502.13;5036715;28;20033;-76
2023/09/19 09:57:01;;;;;;;32.25;4.38;;;;;;;-144.73;100.00;54436.44;5032211;28;20068;-76
2023/09/19 09:59:46;;;;;;;17.38;3.90;;;;;;;-144.73;100.00;54473.38;5040835;28;20022;-76
2023/09/19 10:02:22;;;;;;;16.63;4.38;;;;;;;-144.73;100.00;54489.81;5040299;28;20029;-76
2023/09/19 10:04:59;;;;;;;22.42;4.22;;;;;;;-144.73;100.00;54456.97;5042803;28;20085;-76
2023/09/19 10:07:28;;;;;;;17.85;3.28;;;;;;;-144.73;100.00;54473.38;5042341;28;20035;-76
2023/09/19 10:09:59;;;;;;;16.33;3.58;;;;;;;-144.73;100.00;54444.66;5037566;28;20029;-77
2023/09/19 10:12:28;;;;;;;14.07;3.08;;;;;;;-144.73;100.00;54440.53;5041241;28;20032;-77
2023/09/19 10:15:00;;;;;;;14.40;3.03;;;;;;;-144.73;98.57;54489.81;5030628;28;20045;-76
2023/09/19 10:17:27;;;;;;;;;;;;;;;-144.73;99.43;54514.44;5035195;28;20032;-76
2023/09/19 10:19:59;;;;;;;13.20;3.10;;;;;;;-144.73;98.72;54452.84;5028481;28;19909;-76
2023/09/19 10:22:30;;;;;;;19.65;3.47;;;;;;;-144.73;97.66;54489.81;5034292;28;20022;-76
2023/09/19 10:24:57;;;;;;;18.13;4.22;;;;;;;-144.73;94.81;54452.84;5036945;28;20021;-77
2023/09/19 10:27:26;;;;;;;21.58;3.97;;;;;;;-144.73;94.92;54485.69;5032109;28;20033;-76
2023/09/19 10:29:55;;;;;;;22.27;2.97;;;;;;;-144.73;92.81;54473.38;5043686;28;20761;-76
2023/09/19 10:32:23;;;;;;;14.95;3.33;;;;;;;-144.73;90.70;54485.69;5042807;28;20116;-76
2023/09/19 10:34:49;;;;;;;25.92;4.55;;;;;;;-144.73;90.89;54469.28;5033902;28;20047;-76
2023/09/19 10:37:22;;;;;;;21.77;3.55;;;;;;;-144.73;89.84;54444.66;5037029;28;20059;-76
2023/09/19 10:39:49;;;;;;;13.60;3.17;;;;;;;-144.73;90.55;54465.16;5030683;28;20021;-76
2023/09/19 10:42:19;;;;;;;16.08;2.97;;;;;;;-144.73;89.61;54461.06;5031214;28;20036;-76
2023/09/19 10:44:47;;;;;;;23.33;3.65;;;;;;;-144.73;92.50;54477.47;5033882;28;20029;-76
2023/09/19 10:47:14;;;;;;;14.73;3.10;;;;;;;-144.73;92.41;54473.38;5037044;28;20048;-77
2023/09/19 10:49:46;;;;;;;16.48;3.08;;;;;;;-144.73;93.64;54436.44;5037809;28;20032;-76
2023/09/19 10:52:18;;;;;;;14.68;2.90;;;;;;;-144.73;93.39;54432.31;5035256;28;20132;-76
2023/09/19 10:54:51;;;;;;;21.63;3.85;;;;;;;-144.73;91.38;54415.91;5028963;28;20380;-76
2023/09/19 10:57:24;;;;;;;11.65;3.10;;;;;;;-144.73;89.96;54444.66;5031725;28;20025;-76
2023/09/19 11:00:24;;;;;;;8.95;2.65;;;;;;;-144.73;93.01;54456.97;5032072;28;20051;-76
2023/09/19 11:03:11;;;;;;;14.00;3.60;;;;;;;-144.73;91.45;54452.84;5037085;28;20025;-76
2023/09/19 11:05:40;;;;;;;19.88;2.90;;;;;;;-144.73;92.55;54424.13;5035347;28;20144;-76
2023/09/19 11:08:12;;;;;;;13.65;3.33;;;;;;;-144.73;93.13;54448.75;5031222;28;20021;-76
2023/09/19 11:10:48;;;;;;;15.32;3.42;;;;;;;-144.73;89.34;54465.16;5039554;28;20029;-76
2023/09/19 11:13:30;;;;;;;13.45;3.47;;;;;;;-144.73;89.45;54452.84;5034495;28;20044;-76
2023/09/19 11:15:58;;;;;;;23.73;3.72;;;;;;;-144.73;90.48;54461.06;5036688;28;20029;-76
2023/09/19 11:18:42;;;;;;;10.32;3.20;;;;;;;-144.73;90.55;54444.66;5037510;28;20040;-76